Holdrege, NE

6:09 AM CDT on September 22, 2014 (GMT -0500)
Brewster | Change Station
CLOSE
Current Station
Airport
Location: Holdrege,
Elevation: 2310 ft
Nearby Weather Stations

Elev 2310 ft 40.45 °N, 99.34 °W | Updated 14 minutes ago

Scattered Clouds
Scattered Clouds
50 °F
Feels Like 50 °F
N
0
Wind Variable Wind from North

Today
High -- | Low -- °F
--% Chance of Precip.
Yesterday
High -- | Low -- °F
Precip. -- in
7:24 AM 7:34 PM
Waning Crescent, 3% visible
Pressure 30.31 in
Visibility 10.0 miles
Clouds Scattered Clouds 8500 ft
Dew Point 45 °F
Humidity 83%
Rainfall 0.00 in
Snow Depth Not available.
UV 0 out of 12
Pollen 5.80 out of 12
Air Quality Not available.
Flu Activity Not available.
METAR KHDE 221055Z AUTO 00000KT 10SM SCT085 10/07 A3031 RMK AO2 T00980070

More Conditions Fewer Conditions

Pressure 30.31 in
Visibility 10.0 miles
Clouds Scattered Clouds 8500 ft
Dew Point 45 °F
Humidity 83%
Rainfall 0.00 in
Snow Depth Not available.
UV 0 out of 12
Pollen 5.80 out of 12
Air Quality Not available.
Flu Activity Not available.
METAR KHDE 221055Z AUTO 00000KT 10SM SCT085 10/07 A3031 RMK AO2 T00980070

More Conditions Fewer Conditions

10-Day Weather Forecast

Almanac

Astronomy

Sep. 22, 2014 Rise Set
Actual Time 7:24 AM CDT 7:34 PM CDT
Civil Twilight 6:57 AM CDT 8:01 PM CDT
Nautical Twilight 6:25 AM CDT 8:33 PM CDT
Astronomical Twilight 5:53 AM CDT 9:05 PM CDT
Moon 5:54 AM CDT 6:43 PM CDT
Length of Visible Light 13h 03m
Length of Day
12h 09m
Tomorrow will be 2m 39s shorter.
Waning Crescent, 3% of the Moon is Illuminated
Today
Waning Crescent
Sep 24
New
Oct 1
First Quarter
Oct 8
Full
Oct 15
Last Quarter

Today's Extremes

State Highs State Lows

Community

WunderPhotos

Upload Photos

1,755,409 photos uploaded!

Nearby

Snow Depth

Station Depth Elevation
No new snow has been reported.

Earthquake Activity

City Distance Mag. Time & Date
No recent earthquake activity has been reported nearby.
Minimum magnitude displayed is 2.5.

Coastal Water Temperatures

Place Temperature
No Stations Reporting

Nearby Weather Stations